createdAt,value
2017-07-23T00:01:55.514Z,19.40
2017-07-23T00:04:23.786Z,19.40
2017-07-23T00:06:52.062Z,19.40
2017-07-23T00:09:20.442Z,19.40
2017-07-23T00:11:48.832Z,19.30
2017-07-23T00:14:17.213Z,19.30
2017-07-23T00:16:45.479Z,19.30
2017-07-23T00:19:13.852Z,19.30
2017-07-23T00:21:42.133Z,19.30
2017-07-23T00:24:10.525Z,19.30
2017-07-23T00:26:38.893Z,19.30
2017-07-23T00:29:07.276Z,19.20
2017-07-23T00:31:35.535Z,19.20
2017-07-23T00:34:03.816Z,19.20
2017-07-23T00:36:32.105Z,19.10
2017-07-23T00:39:00.421Z,19.10
2017-07-23T00:41:29.491Z,19.20
2017-07-23T00:43:57.855Z,19.20
2017-07-23T00:46:26.228Z,19.10
2017-07-23T00:48:54.737Z,19.00
2017-07-23T00:51:23.811Z,18.90
2017-07-23T00:53:52.106Z,18.90
2017-07-23T00:56:20.474Z,18.90
2017-07-23T00:58:48.751Z,19.00
2017-07-23T01:01:17.041Z,18.90
2017-07-23T01:03:45.425Z,18.90
2017-07-23T01:06:13.783Z,18.90
2017-07-23T01:08:42.040Z,18.80
2017-07-23T01:11:10.457Z,18.80
2017-07-23T01:13:39.496Z,18.80
2017-07-23T01:16:07.799Z,18.80
2017-07-23T01:18:36.205Z,18.80
2017-07-23T01:21:04.564Z,18.70
2017-07-23T01:23:32.939Z,18.70
2017-07-23T01:26:01.220Z,18.70
2017-07-23T01:28:29.540Z,18.70
2017-07-23T01:30:58.610Z,18.70
2017-07-23T01:33:26.979Z,18.70
2017-07-23T01:35:55.256Z,18.70
2017-07-23T01:38:23.556Z,18.70
2017-07-23T01:40:52.615Z,18.80
2017-07-23T01:43:20.917Z,18.80
2017-07-23T01:45:49.213Z,18.80
2017-07-23T01:48:18.264Z,18.80
2017-07-23T01:50:46.573Z,18.70
2017-07-23T01:53:14.933Z,18.80
2017-07-23T01:55:43.330Z,18.80
2017-07-23T01:58:11.692Z,18.70
2017-07-23T02:00:40.071Z,18.70
2017-07-23T02:03:08.357Z,18.70
2017-07-23T02:05:36.833Z,18.70
2017-07-23T02:08:05.204Z,18.70
2017-07-23T02:10:33.475Z,18.70
2017-07-23T02:13:01.885Z,18.70
2017-07-23T02:15:30.243Z,18.70
2017-07-23T02:17:58.633Z,18.70
2017-07-23T02:20:26.910Z,18.70
2017-07-23T02:22:55.273Z,18.70
2017-07-23T02:25:23.661Z,18.70
2017-07-23T02:27:51.939Z,18.60
2017-07-23T02:30:20.208Z,18.60
2017-07-23T02:32:48.598Z,18.70
2017-07-23T02:35:16.988Z,18.70
2017-07-23T02:37:45.251Z,18.70
2017-07-23T02:40:13.623Z,18.80
2017-07-23T02:42:42.019Z,18.80
2017-07-23T02:45:10.308Z,18.70
2017-07-23T02:47:39.379Z,18.70
2017-07-23T02:50:07.686Z,18.70
2017-07-23T02:52:36.714Z,18.70
2017-07-23T02:55:05.033Z,18.70
2017-07-23T02:57:33.419Z,18.70
2017-07-23T03:00:01.704Z,18.70
2017-07-23T03:02:29.977Z,18.70
2017-07-23T03:04:58.242Z,18.70
2017-07-23T03:07:26.534Z,18.70
2017-07-23T03:09:54.917Z,18.70
2017-07-23T03:12:23.983Z,18.70
2017-07-23T03:14:52.270Z,18.70
2017-07-23T03:17:20.661Z,18.70
2017-07-23T03:19:48.930Z,18.70
2017-07-23T03:22:17.305Z,18.70
2017-07-23T03:24:45.564Z,18.70
2017-07-23T03:27:13.882Z,18.60
2017-07-23T03:29:42.959Z,18.70
2017-07-23T03:32:11.252Z,18.70
2017-07-23T03:34:39.713Z,18.70
2017-07-23T03:37:07.969Z,18.70
2017-07-23T03:39:36.280Z,18.70
2017-07-23T03:42:04.655Z,18.80
2017-07-23T03:44:33.029Z,18.80
2017-07-23T03:47:01.395Z,18.80
2017-07-23T03:49:29.788Z,18.90
2017-07-23T03:51:58.065Z,18.90
2017-07-23T03:54:26.449Z,19.00
2017-07-23T03:56:54.701Z,19.00
2017-07-23T03:59:22.984Z,19.00
2017-07-23T04:01:51.377Z,19.00
2017-07-23T04:04:19.754Z,19.00
2017-07-23T04:06:48.147Z,19.00
2017-07-23T04:09:16.527Z,18.90
2017-07-23T04:11:44.893Z,18.90
2017-07-23T04:14:13.181Z,18.90
2017-07-23T04:16:41.513Z,18.90
2017-07-23T04:19:09.767Z,18.80
2017-07-23T04:21:38.087Z,18.80
2017-07-23T04:24:06.400Z,18.80
2017-07-23T04:26:35.441Z,18.80
2017-07-23T04:29:03.749Z,18.80
2017-07-23T04:31:32.020Z,18.90
2017-07-23T04:34:00.412Z,18.90
2017-07-23T04:36:28.687Z,18.90
2017-07-23T04:38:57.051Z,18.90
2017-07-23T04:41:25.330Z,18.90
2017-07-23T04:43:53.719Z,18.90
2017-07-23T04:46:22.001Z,18.70
2017-07-23T04:48:50.262Z,18.80
2017-07-23T04:51:18.658Z,18.70
2017-07-23T04:53:46.930Z,18.70
2017-07-23T04:56:15.307Z,18.70
2017-07-23T04:58:43.588Z,18.70
2017-07-23T05:01:11.872Z,18.80
2017-07-23T05:03:40.154Z,18.90
2017-07-23T05:06:08.616Z,18.90
2017-07-23T05:08:36.884Z,18.90
2017-07-23T05:11:05.293Z,18.90
2017-07-23T05:13:33.650Z,19.00
2017-07-23T05:16:01.975Z,19.10
2017-07-23T05:18:30.631Z,19.20
2017-07-23T05:20:58.897Z,19.30
2017-07-23T05:23:27.183Z,19.30
2017-07-23T05:25:55.468Z,19.30
2017-07-23T05:28:23.796Z,19.40
2017-07-23T05:30:52.109Z,19.40
2017-07-23T05:33:20.410Z,19.40
2017-07-23T05:35:48.667Z,19.40
2017-07-23T05:38:16.952Z,19.50
2017-07-23T05:40:45.216Z,19.60
2017-07-23T05:43:13.740Z,19.50
2017-07-23T05:45:42.031Z,19.70
2017-07-23T05:48:10.684Z,19.70
2017-07-23T05:50:39.756Z,19.90
2017-07-23T05:53:08.028Z,19.90
2017-07-23T05:55:36.332Z,20.10
2017-07-23T05:58:04.691Z,20.20
2017-07-23T06:00:32.968Z,20.40
2017-07-23T06:03:01.262Z,20.50
2017-07-23T06:05:29.574Z,20.70
2017-07-23T06:07:58.006Z,20.90
2017-07-23T06:10:26.276Z,21.10
2017-07-23T06:12:54.661Z,21.20
2017-07-23T06:15:22.921Z,21.30
2017-07-23T06:17:51.309Z,21.70
2017-07-23T06:20:19.607Z,21.80
2017-07-23T06:22:47.960Z,21.70
2017-07-23T06:25:16.234Z,21.50
2017-07-23T06:27:44.534Z,21.30
2017-07-23T06:30:12.826Z,21.00
2017-07-23T06:32:41.984Z,20.60
2017-07-23T06:35:10.302Z,20.60
2017-07-23T06:37:39.354Z,20.60
2017-07-23T06:40:07.666Z,20.60
2017-07-23T06:42:35.928Z,20.50
2017-07-23T06:45:04.270Z,20.40
2017-07-23T06:47:32.546Z,20.30
2017-07-23T06:50:00.848Z,20.30
2017-07-23T06:52:29.139Z,20.20
2017-07-23T06:54:57.508Z,20.20
2017-07-23T06:57:25.793Z,20.10
2017-07-23T06:59:54.112Z,19.80
2017-07-23T07:02:22.376Z,19.50
2017-07-23T07:04:51.419Z,19.20
2017-07-23T07:07:19.700Z,19.10
2017-07-23T07:09:47.964Z,19.10
2017-07-23T07:12:16.273Z,19.00
2017-07-23T07:14:44.555Z,19.00
2017-07-23T07:17:12.943Z,18.80
2017-07-23T07:19:41.199Z,18.80
2017-07-23T07:22:09.587Z,18.80
2017-07-23T07:24:37.870Z,18.70
2017-07-23T07:27:06.246Z,18.70
2017-07-23T07:29:34.621Z,18.70
2017-07-23T07:32:02.985Z,18.80
2017-07-23T07:34:31.277Z,18.80
2017-07-23T07:36:59.547Z,18.80
2017-07-23T07:39:28.013Z,18.90
2017-07-23T07:41:56.277Z,18.90
2017-07-23T07:44:24.587Z,19.00
2017-07-23T07:46:52.920Z,19.10
2017-07-23T07:49:21.242Z,19.10
2017-07-23T07:51:49.507Z,19.10
2017-07-23T07:54:17.910Z,19.20
2017-07-23T07:56:46.159Z,19.30
2017-07-23T07:59:14.555Z,19.30
2017-07-23T08:01:42.932Z,19.30
2017-07-23T08:04:11.208Z,19.30
2017-07-23T08:06:39.575Z,19.30
2017-07-23T08:09:07.868Z,19.40
2017-07-23T08:11:36.147Z,19.70
2017-07-23T08:14:04.441Z,19.80
2017-07-23T08:16:32.791Z,19.80
2017-07-23T08:19:01.079Z,19.80
2017-07-23T08:21:29.475Z,20.00
2017-07-23T08:23:57.746Z,20.10
2017-07-23T08:26:26.128Z,20.20
2017-07-23T08:28:54.502Z,20.30
2017-07-23T08:31:22.769Z,20.50
2017-07-23T08:33:51.145Z,20.70
2017-07-23T08:36:19.417Z,20.70
2017-07-23T08:38:47.793Z,20.90
2017-07-23T08:41:16.081Z,21.00
2017-07-23T08:43:44.465Z,21.10
2017-07-23T08:46:12.861Z,21.10
2017-07-23T08:48:41.120Z,21.20
2017-07-23T08:51:09.404Z,21.40
2017-07-23T08:53:37.668Z,21.60
2017-07-23T08:56:05.955Z,21.60
2017-07-23T08:58:34.236Z,21.60
2017-07-23T09:01:02.602Z,21.70
2017-07-23T09:03:31.287Z,21.70
2017-07-23T09:05:59.669Z,21.80
2017-07-23T09:08:28.052Z,21.90
2017-07-23T09:10:56.464Z,22.00
2017-07-23T09:13:25.515Z,22.00
2017-07-23T09:15:53.773Z,22.00
2017-07-23T09:18:22.081Z,22.10
2017-07-23T09:20:50.448Z,22.20
2017-07-23T09:23:18.824Z,22.30
2017-07-23T09:25:47.102Z,22.40
2017-07-23T09:28:15.492Z,22.30
2017-07-23T09:30:43.754Z,22.40
2017-07-23T09:33:12.047Z,22.50
2017-07-23T09:35:40.435Z,22.60
2017-07-23T09:38:08.816Z,22.80
2017-07-23T09:40:37.122Z,22.80
2017-07-23T09:43:05.410Z,22.80
2017-07-23T09:45:33.736Z,22.90
2017-07-23T09:48:02.005Z,23.00
2017-07-23T09:50:30.310Z,22.90
2017-07-23T09:52:59.372Z,22.80
2017-07-23T09:55:27.646Z,22.80
2017-07-23T09:57:55.967Z,22.70
2017-07-23T10:00:25.009Z,22.90
2017-07-23T10:02:54.106Z,22.90
2017-07-23T10:05:22.512Z,22.90
2017-07-23T10:07:50.883Z,23.00
2017-07-23T10:10:19.153Z,22.90
2017-07-23T10:12:47.541Z,22.80
2017-07-23T10:15:15.818Z,22.70
2017-07-23T10:17:44.138Z,22.50
2017-07-23T10:20:12.408Z,22.60
2017-07-23T10:22:40.672Z,22.80
2017-07-23T10:25:09.844Z,23.60
2017-07-23T10:27:38.108Z,23.60
2017-07-23T10:30:06.503Z,23.70
2017-07-23T10:32:34.873Z,24.20
2017-07-23T10:35:03.156Z,24.20
2017-07-23T10:37:31.483Z,24.20
2017-07-23T10:39:59.754Z,24.20
2017-07-23T10:42:28.088Z,24.30
2017-07-23T10:44:56.413Z,24.30
2017-07-23T10:47:25.463Z,23.90
2017-07-23T10:49:53.731Z,23.90
2017-07-23T10:52:22.132Z,23.90
2017-07-23T10:54:51.352Z,24.00
2017-07-23T10:57:20.584Z,24.50
2017-07-23T10:59:50.079Z,24.50
2017-07-23T11:02:20.621Z,24.60
2017-07-23T11:04:50.335Z,24.70
2017-07-23T11:07:19.229Z,25.00
2017-07-23T11:09:47.534Z,25.20
2017-07-23T11:12:16.366Z,25.20
2017-07-23T11:14:49.146Z,25.40
2017-07-23T11:17:19.108Z,25.40
2017-07-23T11:19:48.781Z,25.80
2017-07-23T11:22:19.004Z,25.90
2017-07-23T11:24:49.579Z,25.70
2017-07-23T11:27:19.501Z,25.80
2017-07-23T11:29:49.072Z,25.70
2017-07-23T11:32:17.382Z,25.70
2017-07-23T11:34:45.769Z,25.70
2017-07-23T11:37:14.961Z,25.40
2017-07-23T11:39:43.444Z,25.30
2017-07-23T11:42:15.455Z,25.40
2017-07-23T11:44:45.403Z,25.50
2017-07-23T11:47:13.703Z,25.60
2017-07-23T11:49:42.420Z,25.60
2017-07-23T11:52:10.905Z,25.50
2017-07-23T11:54:39.951Z,25.40
2017-07-23T11:57:11.752Z,25.40
2017-07-23T11:59:41.600Z,25.60
2017-07-23T12:02:11.609Z,25.60
2017-07-23T12:04:40.801Z,25.90
2017-07-23T12:07:09.327Z,25.80
2017-07-23T12:09:37.599Z,25.90
2017-07-23T12:12:05.998Z,25.90
2017-07-23T12:14:34.260Z,25.70
2017-07-23T12:17:02.549Z,25.90
2017-07-23T12:19:30.953Z,26.00
2017-07-23T12:22:00.026Z,26.50
2017-07-23T12:24:28.292Z,26.40
2017-07-23T12:26:56.693Z,26.40
2017-07-23T12:29:24.955Z,26.90
2017-07-23T12:31:53.339Z,28.10
2017-07-23T12:34:22.488Z,28.30
2017-07-23T12:36:54.988Z,28.40
2017-07-23T12:39:26.314Z,28.80
2017-07-23T12:41:55.046Z,28.60
2017-07-23T12:44:23.287Z,28.90
2017-07-23T12:46:51.589Z,29.60
2017-07-23T12:49:19.870Z,30.00
2017-07-23T12:51:50.033Z,29.90
2017-07-23T12:54:18.375Z,30.40
2017-07-23T12:56:47.441Z,31.00
2017-07-23T12:59:15.709Z,31.00
2017-07-23T13:01:44.084Z,32.10
2017-07-23T13:04:12.407Z,31.90
2017-07-23T13:06:41.474Z,30.90
2017-07-23T13:09:09.755Z,30.90
2017-07-23T13:11:38.112Z,31.10
2017-07-23T13:14:06.474Z,32.00
2017-07-23T13:16:34.725Z,32.30
2017-07-23T13:19:03.763Z,34.20
2017-07-23T13:21:32.188Z,34.10
2017-07-23T13:24:01.217Z,35.30
2017-07-23T13:26:29.499Z,35.30
2017-07-23T13:28:57.775Z,35.30
2017-07-23T13:31:26.052Z,34.60
2017-07-23T13:33:54.346Z,33.80
2017-07-23T13:36:22.613Z,34.40
2017-07-23T13:38:50.912Z,33.60
2017-07-23T13:41:19.197Z,33.20
2017-07-23T13:43:47.523Z,34.00
2017-07-23T13:46:16.536Z,36.00
2017-07-23T13:48:44.848Z,36.00
2017-07-23T13:51:13.119Z,36.90
2017-07-23T13:53:41.402Z,36.80
2017-07-23T13:56:09.688Z,35.20
2017-07-23T13:58:37.944Z,35.00
2017-07-23T14:01:06.239Z,33.90
2017-07-23T14:03:34.504Z,33.30
2017-07-23T14:06:02.873Z,32.50
2017-07-23T14:08:31.153Z,31.10
2017-07-23T14:10:59.640Z,30.50
2017-07-23T14:13:27.931Z,29.70
2017-07-23T14:15:56.198Z,28.00
2017-07-23T14:18:24.573Z,26.70
2017-07-23T14:20:52.844Z,26.10
2017-07-23T14:23:21.195Z,25.30
2017-07-23T14:25:49.513Z,25.20
2017-07-23T14:28:17.886Z,25.70
2017-07-23T14:30:46.177Z,26.10
2017-07-23T14:33:14.542Z,26.30
2017-07-23T14:35:42.819Z,26.10
2017-07-23T14:38:11.104Z,26.00
2017-07-23T14:40:39.390Z,26.60
2017-07-23T14:43:07.636Z,27.70
2017-07-23T14:45:35.925Z,29.00
2017-07-23T14:48:04.308Z,28.60
2017-07-23T14:50:32.564Z,28.20
2017-07-23T14:53:00.853Z,28.30
2017-07-23T14:55:29.139Z,29.40
2017-07-23T14:57:57.518Z,30.60
2017-07-23T15:00:25.906Z,30.40
2017-07-23T15:02:54.187Z,30.70
2017-07-23T15:05:22.492Z,30.80
2017-07-23T15:07:51.511Z,29.50
2017-07-23T15:10:19.826Z,29.40
2017-07-23T15:12:48.188Z,28.90
2017-07-23T15:15:16.478Z,28.40
2017-07-23T15:17:44.866Z,28.30
2017-07-23T15:20:13.124Z,28.10
2017-07-23T15:22:41.505Z,28.00
2017-07-23T15:25:09.794Z,27.50
2017-07-23T15:27:38.185Z,27.10
2017-07-23T15:30:06.540Z,26.70
2017-07-23T15:32:34.937Z,26.70
2017-07-23T15:35:03.198Z,26.60
2017-07-23T15:37:31.454Z,26.90
2017-07-23T15:39:59.770Z,26.90
2017-07-23T15:42:28.038Z,27.20
2017-07-23T15:44:56.419Z,27.40
2017-07-23T15:47:24.682Z,28.80
2017-07-23T15:49:52.991Z,30.70
2017-07-23T15:52:21.270Z,31.40
2017-07-23T15:54:49.644Z,31.40
2017-07-23T15:57:17.896Z,31.60
2017-07-23T15:59:46.346Z,31.70
2017-07-23T16:02:14.691Z,32.50
2017-07-23T16:04:42.966Z,33.20
2017-07-23T16:07:11.266Z,33.10
2017-07-23T16:09:39.536Z,34.50
2017-07-23T16:12:08.690Z,35.70
2017-07-23T16:14:36.981Z,35.70
2017-07-23T16:17:05.253Z,35.50
2017-07-23T16:19:33.635Z,34.30
2017-07-23T16:22:02.006Z,34.60
2017-07-23T16:24:30.274Z,33.00
2017-07-23T16:26:58.694Z,31.80
2017-07-23T16:29:27.714Z,29.60
2017-07-23T16:31:56.035Z,29.50
2017-07-23T16:34:24.285Z,30.50
2017-07-23T16:36:52.577Z,31.60
2017-07-23T16:39:21.069Z,32.50
2017-07-23T16:41:49.317Z,31.50
2017-07-23T16:44:17.593Z,31.40
2017-07-23T16:46:45.848Z,31.60
2017-07-23T16:49:14.115Z,31.40
2017-07-23T16:51:42.391Z,31.20
2017-07-23T16:54:10.688Z,31.00
2017-07-23T16:56:39.728Z,31.80
2017-07-23T16:59:08.105Z,31.90
2017-07-23T17:01:36.370Z,31.60
2017-07-23T17:04:06.528Z,31.30
2017-07-23T17:06:35.381Z,30.80
2017-07-23T17:09:04.384Z,30.00
2017-07-23T17:11:33.463Z,29.30
2017-07-23T17:14:01.769Z,28.30
2017-07-23T17:16:30.066Z,27.60
2017-07-23T17:18:59.092Z,27.10
2017-07-23T17:21:30.438Z,27.10
2017-07-23T17:24:00.309Z,27.50
2017-07-23T17:26:29.479Z,28.20
2017-07-23T17:28:57.765Z,28.20
2017-07-23T17:31:26.038Z,27.50
2017-07-23T17:33:55.348Z,27.00
2017-07-23T17:36:24.963Z,26.50
2017-07-23T17:38:54.062Z,25.80
2017-07-23T17:41:22.340Z,25.80
2017-07-23T17:43:50.700Z,25.60
2017-07-23T17:46:19.189Z,25.10
2017-07-23T17:48:47.465Z,25.00
2017-07-23T17:51:15.741Z,24.90
2017-07-23T17:53:44.117Z,25.70
2017-07-23T17:56:12.500Z,26.40
2017-07-23T17:58:40.828Z,26.40
2017-07-23T18:01:09.105Z,26.00
2017-07-23T18:03:37.444Z,25.90
2017-07-23T18:06:05.812Z,25.50
2017-07-23T18:08:34.080Z,25.20
2017-07-23T18:11:02.477Z,25.10
2017-07-23T18:13:30.747Z,25.00
2017-07-23T18:15:59.040Z,24.70
2017-07-23T18:18:27.298Z,24.50
2017-07-23T18:20:55.564Z,24.40
2017-07-23T18:23:23.874Z,24.20
2017-07-23T18:25:52.141Z,24.10
2017-07-23T18:28:20.508Z,24.30
2017-07-23T18:30:48.812Z,24.40
2017-07-23T18:33:17.881Z,24.40
2017-07-23T18:35:46.159Z,24.40
2017-07-23T18:38:14.613Z,24.70
2017-07-23T18:40:42.864Z,24.90
2017-07-23T18:43:11.219Z,24.70
2017-07-23T18:45:39.484Z,24.80
2017-07-23T18:48:07.863Z,24.80
2017-07-23T18:50:36.255Z,24.80
2017-07-23T18:53:04.714Z,24.70
2017-07-23T18:55:33.103Z,24.40
2017-07-23T18:58:01.390Z,24.10
2017-07-23T19:00:29.662Z,23.90
2017-07-23T19:02:57.922Z,23.70
2017-07-23T19:05:26.338Z,23.50
2017-07-23T19:07:55.400Z,23.20
2017-07-23T19:10:23.697Z,23.20
2017-07-23T19:12:51.971Z,23.10
2017-07-23T19:15:20.231Z,23.10
2017-07-23T19:17:48.621Z,23.00
2017-07-23T19:20:16.871Z,23.00
2017-07-23T19:22:45.155Z,22.80
2017-07-23T19:25:13.416Z,22.60
2017-07-23T19:27:41.701Z,22.50
2017-07-23T19:30:09.975Z,22.40
2017-07-23T19:32:38.264Z,22.40
2017-07-23T19:35:06.550Z,22.30
2017-07-23T19:37:34.814Z,22.30
2017-07-23T19:40:03.204Z,22.20
2017-07-23T19:42:31.581Z,22.30
2017-07-23T19:44:59.839Z,22.20
2017-07-23T19:47:28.114Z,22.30
2017-07-23T19:49:56.410Z,22.30
2017-07-23T19:52:24.654Z,22.20
2017-07-23T19:54:52.965Z,22.20
2017-07-23T19:57:21.250Z,22.20
2017-07-23T19:59:49.700Z,22.20
2017-07-23T20:02:17.949Z,22.20
2017-07-23T20:04:46.277Z,22.10
2017-07-23T20:07:14.553Z,22.00
2017-07-23T20:09:42.817Z,22.00
2017-07-23T20:12:11.094Z,22.00
2017-07-23T20:14:39.367Z,22.00
2017-07-23T20:17:07.633Z,22.00
2017-07-23T20:19:35.944Z,21.90
2017-07-23T20:22:04.245Z,21.90
2017-07-23T20:24:33.314Z,21.80
2017-07-23T20:27:01.604Z,21.80
2017-07-23T20:29:29.974Z,21.70
2017-07-23T20:31:58.242Z,21.60
2017-07-23T20:34:26.523Z,21.50
2017-07-23T20:36:54.787Z,21.40
2017-07-23T20:39:23.179Z,21.30
2017-07-23T20:41:51.646Z,21.10
2017-07-23T20:44:20.055Z,21.00
2017-07-23T20:46:48.318Z,20.90
2017-07-23T20:49:16.631Z,20.90
2017-07-23T20:51:45.631Z,20.90
2017-07-23T20:54:13.962Z,20.90
2017-07-23T20:56:42.246Z,20.90
2017-07-23T20:59:10.500Z,20.90
2017-07-23T21:01:38.790Z,20.90
2017-07-23T21:04:07.059Z,20.90
2017-07-23T21:06:35.344Z,20.80
2017-07-23T21:09:03.643Z,20.70
2017-07-23T21:11:32.006Z,20.60
2017-07-23T21:14:00.397Z,20.60
2017-07-23T21:16:28.777Z,20.60
2017-07-23T21:18:57.083Z,20.60
2017-07-23T21:21:26.240Z,20.70
2017-07-23T21:23:54.522Z,20.70
2017-07-23T21:26:22.811Z,20.70
2017-07-23T21:28:51.154Z,20.70
2017-07-23T21:31:19.394Z,20.70
2017-07-23T21:33:47.717Z,20.60
2017-07-23T21:36:16.002Z,20.60
2017-07-23T21:38:44.385Z,20.50
2017-07-23T21:41:12.686Z,20.50
2017-07-23T21:43:41.115Z,20.40
2017-07-23T21:46:09.419Z,20.50
2017-07-23T21:48:37.695Z,20.50
2017-07-23T21:51:06.098Z,20.50
2017-07-23T21:53:34.369Z,20.50
2017-07-23T21:56:02.724Z,20.60
2017-07-23T21:58:30.988Z,20.60
2017-07-23T22:00:59.309Z,20.60
2017-07-23T22:03:28.379Z,20.60
2017-07-23T22:05:56.774Z,20.60
2017-07-23T22:08:25.035Z,20.60
2017-07-23T22:10:53.436Z,20.50
2017-07-23T22:13:21.805Z,20.50
2017-07-23T22:15:50.077Z,20.50
2017-07-23T22:18:18.429Z,20.30
2017-07-23T22:20:46.741Z,20.20
2017-07-23T22:23:15.076Z,20.10
2017-07-23T22:25:43.334Z,20.10
2017-07-23T22:28:11.614Z,20.00
2017-07-23T22:30:39.923Z,19.90
2017-07-23T22:33:08.321Z,19.90
2017-07-23T22:35:36.608Z,19.90
2017-07-23T22:38:04.888Z,19.90
2017-07-23T22:40:33.152Z,19.90
2017-07-23T22:43:01.439Z,19.90
2017-07-23T22:45:29.728Z,19.90
2017-07-23T22:47:58.096Z,20.00
2017-07-23T22:50:26.669Z,20.10
2017-07-23T22:52:54.946Z,20.20
2017-07-23T22:55:23.326Z,20.20
2017-07-23T22:57:51.590Z,20.20
2017-07-23T23:00:19.888Z,20.30
2017-07-23T23:02:48.162Z,20.20
2017-07-23T23:05:16.529Z,20.10
2017-07-23T23:07:44.819Z,20.10
2017-07-23T23:10:13.200Z,20.00
2017-07-23T23:12:42.384Z,20.00
2017-07-23T23:15:10.649Z,19.90
2017-07-23T23:17:38.924Z,19.90
2017-07-23T23:20:07.185Z,19.90
2017-07-23T23:22:35.504Z,19.90
2017-07-23T23:25:03.884Z,19.90
2017-07-23T23:27:32.252Z,19.90
2017-07-23T23:30:00.517Z,19.90
2017-07-23T23:32:28.807Z,19.90
2017-07-23T23:34:57.063Z,19.90
2017-07-23T23:37:25.386Z,19.90
2017-07-23T23:39:53.643Z,19.90
2017-07-23T23:42:21.911Z,19.90
2017-07-23T23:44:50.313Z,19.90
2017-07-23T23:47:18.574Z,19.90
2017-07-23T23:49:46.950Z,19.90
2017-07-23T23:52:15.211Z,20.00
2017-07-23T23:54:43.491Z,20.00
2017-07-23T23:57:11.761Z,20.00
2017-07-23T23:59:40.040Z,20.10
